Time;durP1;ratioP1;P1;durP2;ratioP2;P2;SDS_P1;SDS_P2;PMS_P1;PMS_P2;Temp;Humidity;BMP_temperature;BMP_pressure;BME280_temperature;BME280_humidity;BME280_pressure;Samples;Min_cycle;Max_cycle;Signal;HPM_P1;HPM_P2
2022/03/04 00:00:54;;;;;;;49.90;30.95;;;;;;;;;;4993810;28;20394;-65
2022/03/04 00:03:20;;;;;;;90.05;60.72;;;;;;;;;;4994020;28;20025;-65
2022/03/04 00:05:46;;;;;;;46.65;29.85;;;;;;;;;;4976611;28;20121;-65
2022/03/04 00:08:12;;;;;;;85.53;48.13;;;153.60;2252.80;;;;;;4993385;28;20038;-65
2022/03/04 00:10:38;;;;;;;66.35;31.65;;;153.60;1843.20;;;;;;4993908;28;20080;-65
2022/03/04 00:13:04;;;;;;;56.22;29.85;;;153.60;1740.80;;;;;;4993932;28;20036;-66
2022/03/04 00:15:31;;;;;;;45.63;31.88;;;153.60;1740.80;;;;;;4994162;28;20026;-65
2022/03/04 00:17:57;;;;;;;48.55;31.40;;;153.80;1740.80;;;;;;4993889;28;20084;-64
2022/03/04 00:20:23;;;;;;;55.60;34.08;;;153.90;1715.20;;;;;;4994301;28;20027;-66
2022/03/04 00:22:49;;;;;;;56.67;36.60;;;153.80;1740.80;;;;;;4993577;28;20022;-65
2022/03/04 00:25:15;;;;;;;70.00;48.35;;;153.70;1740.80;;;;;;4993622;28;20030;-64
2022/03/04 00:27:41;;;;;;;64.85;41.85;;;153.70;1740.80;;;;;;4993887;28;20034;-65
2022/03/04 00:30:07;;;;;;;68.30;42.55;;;153.80;1740.80;;;;;;4993560;28;20492;-65
2022/03/04 00:32:35;;;;;;;71.45;44.20;;;153.70;1740.80;;;;;;4976145;28;20548;-65
2022/03/04 00:35:01;;;;;;;67.28;42.03;;;153.60;1766.40;;;;;;4993646;28;20031;-64
2022/03/04 00:37:27;;;;;;;68.43;42.17;;;153.60;1766.40;;;;;;4993418;28;20031;-64
2022/03/04 00:39:52;;;;;;;66.85;43.10;;;128.90;1766.40;;;;;;4993576;28;20041;-65
2022/03/04 00:42:19;;;;;;;65.28;42.15;;;;;;;;;;4993341;28;20030;-64
2022/03/04 00:44:45;;;;;;;61.83;37.67;;;128.80;1766.40;;;;;;4993168;28;20105;-64
2022/03/04 00:47:11;;;;;;;49.08;31.77;;;128.70;2252.80;;;;;;4993557;28;20033;-65
2022/03/04 00:49:37;;;;;;;44.75;30.10;;;;;;;;;;4993405;28;20038;-66
2022/03/04 00:52:03;;;;;;;46.42;29.55;;;128.60;1792.00;;;;;;4993399;28;20026;-65
2022/03/04 00:54:29;;;;;;;55.08;33.13;;;;;;;;;;4993290;28;20023;-65
2022/03/04 00:56:55;;;;;;;46.03;28.05;;;;;;;;;;4993387;28;20023;-66
2022/03/04 00:59:21;;;;;;;42.15;26.10;;;;;;;;;;4993608;28;20029;-66
2022/03/04 01:01:47;;;;;;;39.90;26.58;;;;;;;;;;4993283;28;20077;-66
2022/03/04 01:04:13;;;;;;;40.58;26.27;;;;;;;;;;4993275;28;20062;-66
2022/03/04 01:06:39;;;;;;;39.40;23.88;;;;;;;;;;4975434;28;20518;-66
2022/03/04 01:09:05;;;;;;;34.55;23.40;;;;;;;;;;4993130;28;20492;-66
2022/03/04 01:11:32;;;;;;;39.17;25.10;;;;;;;;;;4993307;28;20465;-66
2022/03/04 01:13:58;;;;;;;40.88;23.33;;;;;;;;;;4993511;28;20041;-66
2022/03/04 01:16:25;;;;;;;40.03;24.92;;;;;;;;;;4993103;28;20537;-66
2022/03/04 01:18:51;;;;;;;40.75;25.15;;;;;;;;;;4994078;28;20036;-66
2022/03/04 01:21:17;;;;;;;39.03;28.25;;;;;;;;;;4996910;28;20046;-66
2022/03/04 01:23:43;;;;;;;46.30;29.30;;;;;;;;;;4996850;28;20030;-66
2022/03/04 01:26:09;;;;;;;46.63;30.27;;;;;;;;;;4997006;28;20424;-66
2022/03/04 01:28:36;;;;;;;47.88;31.20;;;;;;;;;;4996749;28;20073;-66
2022/03/04 01:31:02;;;;;;;48.78;31.58;;;;;;;;;;4996633;28;20022;-66
2022/03/04 01:33:28;;;;;;;65.63;36.38;;;;;;;;;;4996674;28;20113;-66
2022/03/04 01:35:54;;;;;;;80.18;44.50;;;;;;;;;;4996708;28;20026;-66
2022/03/04 01:38:20;;;;;;;76.70;45.60;;;;;;;;;;4996557;28;20080;-66
2022/03/04 01:40:46;;;;;;;68.45;40.75;;;;;;;;;;4996832;28;20953;-66
2022/03/04 01:43:12;;;;;;;74.25;44.50;;;;;;;;;;4996383;28;20066;-66
2022/03/04 01:45:38;;;;;;;98.82;54.17;;;;;;;;;;4996397;28;20042;-66
2022/03/04 01:48:05;;;;;;;95.32;57.03;;;;;;;;;;4996452;28;20140;-66
2022/03/04 01:50:31;;;;;;;72.28;42.55;;;;;;;;;;4996360;28;20069;-66
2022/03/04 01:52:57;;;;;;;53.30;32.67;;;;;;;;;;4996239;28;20033;-66
2022/03/04 01:55:23;;;;;;;44.55;29.42;;;;;;;;;;4996125;28;20414;-66
2022/03/04 01:57:49;;;;;;;44.55;28.95;;;;;;;;;;4978576;28;20088;-66
2022/03/04 02:00:16;;;;;;;42.60;28.48;;;;;;;;;;4996123;28;20023;-66
2022/03/04 02:02:43;;;;;;;37.03;24.85;;;;;;;;;;4996479;28;20037;-66
2022/03/04 02:05:13;;;;;;;35.85;23.90;;;;;;;;;;4996075;28;20038;-65
2022/03/04 02:07:39;;;;;;;39.05;25.95;;;;;;;;;;4995976;28;20027;-66
2022/03/04 02:10:05;;;;;;;42.75;30.00;;;;;;;;;;4995903;28;20042;-66
2022/03/04 02:12:31;;;;;;;35.83;24.58;;;;;;;;;;4995950;28;20470;-66
2022/03/04 02:14:57;;;;;;;38.08;25.33;;;;;;;;;;4978799;28;20389;-65
2022/03/04 02:17:23;;;;;;;38.15;25.10;;;;;;;;;;4995801;28;20025;-66
2022/03/04 02:19:56;;;;;;;38.10;23.77;;;;;;;;;;4995852;28;20041;-66
2022/03/04 02:22:22;;;;;;;39.80;27.50;;;;;;;;;;4995797;28;20038;-65
2022/03/04 02:24:48;;;;;;;45.10;29.80;;;;;;;;;;4995558;28;20122;-67
2022/03/04 02:27:14;;;;;;;48.38;30.98;;;;;;;;;;4995663;28;20074;-67
2022/03/04 02:29:40;;;;;;;48.00;31.33;;;;;;;;;;4995356;28;20030;-66
2022/03/04 02:32:06;;;;;;;46.22;29.60;;;;;;;;;;4995468;28;20022;-67
2022/03/04 02:34:33;;;;;;;51.58;34.90;;;;;;;;;;4995558;28;20022;-69
2022/03/04 02:36:59;;;;;;;44.70;29.88;;;103.30;1868.80;;;;;;4995486;28;20030;-65
2022/03/04 02:39:25;;;;;;;39.58;26.10;;;;;;;;;;4995344;28;20030;-67
2022/03/04 02:41:51;;;;;;;36.80;24.98;;;;;;;;;;4995546;28;20030;-66
2022/03/04 02:44:18;;;;;;;38.15;23.60;;;;;;;;;;4995351;28;20050;-66
2022/03/04 02:46:44;;;;;;;40.50;26.48;;;;;;;;;;4995326;28;20041;-67
2022/03/04 02:49:11;;;;;;;40.08;27.33;;;128.10;2252.80;;;;;;4977708;28;20062;-64
2022/03/04 02:51:38;;;;;;;40.13;25.98;;;128.10;1843.20;;;;;;4995316;28;20097;-65
2022/03/04 02:54:04;;;;;;;39.08;23.38;;;128.30;1817.60;;;;;;4995152;28;20041;-65
2022/03/04 02:56:30;;;;;;;35.38;23.65;;;;;;;;;;4995264;28;20022;-66
2022/03/04 02:58:56;;;;;;;39.05;24.17;;;128.10;1920.00;;;;;;4995111;28;20022;-64
2022/03/04 03:01:21;;;;;;;40.47;25.27;;;103.30;1843.20;;;;;;4995328;28;20098;-65
2022/03/04 03:03:47;;;;;;;34.80;21.95;;;103.30;1843.20;;;;;;4995075;28;20026;-64
2022/03/04 03:06:13;;;;;;;35.50;22.73;;;103.30;1843.20;;;;;;4994022;28;20117;-65
2022/03/04 03:08:39;;;;;;;38.53;23.23;;;103.30;1843.20;;;;;;4994886;28;20556;-65
2022/03/04 03:11:04;;;;;;;35.40;23.23;;;103.30;1843.20;;;;;;4994812;28;20125;-65
2022/03/04 03:13:30;;;;;;;40.38;25.08;;;103.30;1843.20;;;;;;4995048;28;20061;-66
2022/03/04 03:15:56;;;;;;;37.83;24.83;;;103.30;1868.80;;;;;;4994741;28;20047;-67
2022/03/04 03:18:22;;;;;;;33.15;22.00;;;103.20;1843.20;;;;;;4994753;28;20082;-65
2022/03/04 03:20:48;;;;;;;38.78;23.02;;;103.20;1843.20;;;;;;4994688;28;20034;-65
2022/03/04 03:23:14;;;;;;;40.95;23.60;;;;;;;;;;4995147;28;20034;-66
2022/03/04 03:25:40;;;;;;;34.85;21.20;;;;;;;;;;4994458;28;20023;-66
2022/03/04 03:28:07;;;;;;;34.67;22.45;;;;;;;;;;4994670;28;20037;-66
2022/03/04 03:30:33;;;;;;;34.88;22.30;;;103.00;1868.80;;;;;;4994724;28;20101;-64
2022/03/04 03:32:59;;;;;;;38.25;21.52;;;103.00;1971.20;;;;;;4994460;28;20097;-64
2022/03/04 03:35:25;;;;;;;35.45;21.70;;;103.00;1894.40;;;;;;4994791;28;20416;-64
2022/03/04 03:37:50;;;;;;;36.05;22.00;;;103.00;1868.80;;;;;;4994505;28;20022;-65
2022/03/04 03:40:16;;;;;;;34.17;22.58;;;102.90;1894.40;;;;;;4994243;28;20030;-65
2022/03/04 03:42:42;;;;;;;37.63;22.98;;;102.90;1894.40;;;;;;4993588;28;20038;-65
2022/03/04 03:45:10;;;;;;;33.33;20.83;;;103.00;1894.40;;;;;;4994073;28;20087;-64
2022/03/04 03:47:38;;;;;;;34.50;21.25;;;102.90;1894.40;;;;;;4994142;28;20092;-64
2022/03/04 03:50:09;;;;;;;39.13;22.58;;;102.80;1894.40;;;;;;4994239;28;20391;-65
2022/03/04 03:52:35;;;;;;;35.63;22.50;;;102.80;1894.40;;;;;;4994094;28;20042;-65
2022/03/04 03:55:01;;;;;;;38.20;22.30;;;102.90;1894.40;;;;;;4994107;28;20026;-64
2022/03/04 03:57:27;;;;;;;35.92;23.17;;;102.80;1920.00;;;;;;4994171;28;20350;-63
2022/03/04 03:59:53;;;;;;;37.05;22.63;;;102.80;2227.20;;;;;;4994123;28;20509;-65
2022/03/04 04:02:18;;;;;;;39.95;23.48;;;102.80;1920.00;;;;;;4993879;28;20030;-64
2022/03/04 04:04:44;;;;;;;41.65;25.52;;;102.70;1920.00;;;;;;4993924;28;20168;-64
2022/03/04 04:07:11;;;;;;;41.63;24.08;;;102.70;1945.60;;;;;;4994077;28;20033;-64
2022/03/04 04:09:38;;;;;;;45.97;26.98;;;102.60;1945.60;;;;;;4993838;28;20082;-64
2022/03/04 04:12:05;;;;;;;39.22;23.83;;;;;;;;;;4994252;28;20050;-66
2022/03/04 04:14:31;;;;;;;35.40;20.80;;;102.70;1920.00;;;;;;4993927;28;20038;-64
2022/03/04 04:16:56;;;;;;;36.30;21.85;;;102.60;1945.60;;;;;;4993781;28;20512;-64
2022/03/04 04:19:23;;;;;;;35.67;21.45;;;102.40;2201.60;;;;;;4993905;28;20459;-64
2022/03/04 04:21:50;;;;;;;36.17;22.33;;;102.40;2201.60;;;;;;4993754;28;20037;-65
2022/03/04 04:24:16;;;;;;;33.35;22.70;;;;;;;;;;4993627;28;20025;-66
2022/03/04 04:26:42;;;;;;;39.80;23.45;;;;;;;;;;4993671;28;20089;-67
2022/03/04 04:29:08;;;;;;;37.00;23.27;;;;;;;;;;4993425;28;20045;-65
2022/03/04 04:31:35;;;;;;;38.50;22.15;;;;;;;;;;4993805;28;20047;-65
2022/03/04 04:34:02;;;;;;;39.95;23.90;;;102.50;2227.20;;;;;;4975898;28;20381;-63
2022/03/04 04:36:28;;;;;;;35.38;24.23;;;102.50;2099.20;;;;;;4993649;28;20033;-63
2022/03/04 04:38:55;;;;;;;42.40;26.65;;;102.50;1945.60;;;;;;4993531;28;20026;-64
2022/03/04 04:41:21;;;;;;;55.85;27.38;;;102.60;1945.60;;;;;;4993335;28;20054;-64
2022/03/04 04:43:47;;;;;;;53.30;31.45;;;102.70;1945.60;;;;;;4993417;28;20046;-64
2022/03/04 04:46:13;;;;;;;52.40;30.38;;;102.60;1945.60;;;;;;4993376;28;20037;-64
2022/03/04 04:48:39;;;;;;;51.22;31.67;;;102.60;1945.60;;;;;;4994007;28;20038;-64
2022/03/04 04:51:05;;;;;;;52.85;30.13;;;102.60;1945.60;;;;;;4976045;28;20018;-64
2022/03/04 04:53:32;;;;;;;44.83;27.48;;;102.60;1945.60;;;;;;4995446;28;20029;-64
2022/03/04 04:55:58;;;;;;;47.88;27.35;;;102.60;1945.60;;;;;;4997263;28;20393;-64
2022/03/04 04:58:24;;;;;;;51.03;29.48;;;102.70;2176.00;;;;;;4997445;28;20085;-65
2022/03/04 05:00:56;;;;;;;48.30;28.23;;;102.70;1945.60;;;;;;4997300;28;20555;-64
2022/03/04 05:03:23;;;;;;;52.65;31.58;;;102.70;1945.60;;;;;;4997203;28;20120;-64
2022/03/04 05:05:49;;;;;;;61.22;35.63;;;102.80;1945.60;;;;;;4997109;28;20022;-65
2022/03/04 05:08:16;;;;;;;63.30;37.42;;;102.80;1945.60;;;;;;4997139;28;20117;-64
2022/03/04 05:10:42;;;;;;;58.42;35.40;;;102.70;1945.60;;;;;;4996931;28;20030;-64
2022/03/04 05:13:08;;;;;;;58.03;33.65;;;;;;;;;;4997150;28;20037;-66
2022/03/04 05:15:34;;;;;;;46.25;28.85;;;102.80;1920.00;;;;;;4996890;28;20113;-65
2022/03/04 05:17:59;;;;;;;46.78;29.70;;;102.80;1920.00;;;;;;4997197;28;20106;-64
2022/03/04 05:20:25;;;;;;;50.63;30.13;;;102.90;1894.40;;;;;;4996998;28;20445;-64
2022/03/04 05:22:51;;;;;;;65.05;38.22;;;102.90;1920.00;;;;;;4996897;28;20023;-65
2022/03/04 05:25:17;;;;;;;59.30;33.05;;;102.90;1894.40;;;;;;4996723;28;20085;-64
2022/03/04 05:27:42;;;;;;;85.15;46.85;;;102.80;1920.00;;;;;;4996968;28;20425;-64
2022/03/04 05:30:09;;;;;;;50.53;30.45;;;102.90;1920.00;;;;;;4996767;28;20038;-64
2022/03/04 05:32:36;;;;;;;44.05;28.65;;;102.80;1920.00;;;;;;4997178;28;20070;-65
2022/03/04 05:35:02;;;;;;;51.65;28.63;;;102.70;1945.60;;;;;;4996666;28;20374;-65
2022/03/04 05:37:28;;;;;;;51.38;30.67;;;;;;;;;;4996544;28;20041;-66
2022/03/04 05:39:54;;;;;;;49.60;31.30;;;;;;;;;;4979182;28;20057;-66
2022/03/04 05:42:21;;;;;;;61.72;37.53;;;;;;;;;;4996253;28;20105;-66
2022/03/04 05:44:47;;;;;;;63.20;36.03;;;;;;;;;;4996338;28;20054;-67
2022/03/04 05:47:13;;;;;;;81.18;39.97;;;;;;;;;;4996630;28;20026;-67
2022/03/04 05:49:39;;;;;;;54.58;30.23;;;;;;;;;;4996198;28;20042;-65
2022/03/04 05:52:05;;;;;;;72.90;36.03;;;102.50;1945.60;;;;;;4996261;28;20065;-64
2022/03/04 05:54:31;;;;;;;69.70;39.03;;;102.40;1971.20;;;;;;4996131;28;20031;-65
2022/03/04 05:56:57;;;;;;;74.03;42.25;;;;;;;;;;4996397;28;20176;-66
2022/03/04 05:59:23;;;;;;;69.68;42.28;;;;;;;;;;4996163;28;20037;-65
2022/03/04 06:01:50;;;;;;;68.00;39.55;;;;;;;;;;4995878;28;20061;-66
2022/03/04 06:04:17;;;;;;;70.55;40.78;;;;;;;;;;4995395;28;20030;-66
2022/03/04 06:06:43;;;;;;;66.93;38.67;;;;;;;;;;4996089;28;20022;-65
2022/03/04 06:09:10;;;;;;;55.95;35.60;;;;;;;;;;4995956;28;20069;-66
2022/03/04 06:11:36;;;;;;;65.85;37.15;;;;;;;;;;4995705;28;20106;-66
2022/03/04 06:14:02;;;;;;;66.53;39.30;;;;;;;;;;4995975;28;20117;-66
2022/03/04 06:16:28;;;;;;;63.35;34.38;;;;;;;;;;4996029;28;20404;-66
2022/03/04 06:18:54;;;;;;;72.38;41.63;;;;;;;;;;4995613;28;20385;-66
2022/03/04 06:21:21;;;;;;;74.28;41.20;;;;;;;;;;4996044;28;20065;-65
2022/03/04 06:23:47;;;;;;;83.78;47.85;;;;;;;;;;4995838;28;20065;-66
2022/03/04 06:26:13;;;;;;;95.35;56.45;;;;;;;;;;4995480;28;20029;-66
2022/03/04 06:28:39;;;;;;;104.07;58.08;;;;;;;;;;4995856;28;20085;-66
2022/03/04 06:31:06;;;;;;;110.88;69.22;;;;;;;;;;4995548;28;20097;-66
2022/03/04 06:33:35;;;;;;;123.00;70.18;;;;;;;;;;4995425;28;20022;-65
2022/03/04 06:36:04;;;;;;;117.55;68.32;;;;;;;;;;4995571;28;20014;-66
2022/03/04 06:38:32;;;;;;;114.63;68.60;;;;;;;;;;4995886;28;20037;-66
2022/03/04 06:40:58;;;;;;;106.15;66.15;;;;;;;;;;4995269;28;20125;-66
2022/03/04 06:43:25;;;;;;;100.18;62.40;;;;;;;;;;4995140;28;20564;-66
2022/03/04 06:45:51;;;;;;;100.90;59.00;;;128.40;1894.40;;;;;;4977341;28;20404;-65
2022/03/04 06:48:18;;;;;;;71.70;43.90;;;;;;;;;;4995105;28;20029;-66
2022/03/04 06:50:45;;;;;;;72.10;42.47;;;128.80;1868.80;;;;;;4995195;28;20035;-64
2022/03/04 06:53:11;;;;;;;72.65;43.60;;;128.80;1868.80;;;;;;4995113;28;20022;-65
2022/03/04 06:55:37;;;;;;;84.85;52.63;;;;;;;;;;4995063;28;20037;-66
2022/03/04 06:58:03;;;;;;;77.43;49.08;;;;;;;;;;4994994;28;20085;-66
2022/03/04 07:00:29;;;;;;;72.93;43.45;;;;;;;;;;4995088;28;20060;-66
2022/03/04 07:02:56;;;;;;;63.63;39.80;;;;;;;;;;4994774;28;20358;-66
2022/03/04 07:05:22;;;;;;;68.53;41.17;;;;;;;;;;4977419;28;20027;-66
2022/03/04 07:07:52;;;;;;;65.05;39.90;;;;;;;;;;4994901;28;20076;-66
2022/03/04 07:10:19;;;;;;;101.32;61.10;;;;;;;;;;4994616;28;20493;-66
2022/03/04 07:12:46;;;;;;;103.32;64.65;;;154.20;1766.40;;;;;;4994765;28;20036;-65
2022/03/04 07:15:13;;;;;;;85.57;49.90;;;154.40;2124.80;;;;;;4994806;28;20093;-64
2022/03/04 07:17:39;;;;;;;84.20;48.33;;;;;;;;;;4993526;28;20026;-65
2022/03/04 07:20:06;;;;;;;111.40;66.55;;;;;;;;;;4994383;28;20031;-65
2022/03/04 07:22:32;;;;;;;98.50;67.35;;;;;;;;;;4994655;28;20464;-65
2022/03/04 07:24:58;;;;;;;107.35;57.08;;;;;;;;;;4994306;28;20034;-65
2022/03/04 07:27:24;;;;;;;78.68;53.90;;;;;;;;;;4994502;28;20040;-66
2022/03/04 07:29:50;;;;;;;54.20;40.65;;;;;;;;;;4994479;28;20062;-66
2022/03/04 07:32:16;;;;;;;54.95;40.20;;;;;;;;;;4994324;28;20025;-67
2022/03/04 07:34:42;;;;;;;55.35;34.40;;;;;;;;;;4994765;28;20034;-67
2022/03/04 07:37:08;;;;;;;69.03;47.13;;;;;;;;;;4994351;28;20029;-67
2022/03/04 07:39:34;;;;;;;58.08;40.83;;;;;;;;;;4994157;28;20035;-67
2022/03/04 07:42:01;;;;;;;56.13;35.80;;;;;;;;;;4994128;28;20536;-67
2022/03/04 07:44:28;;;;;;;53.45;31.55;;;;;;;;;;4993972;28;20057;-66
2022/03/04 07:46:54;;;;;;;60.83;35.30;;;;;;;;;;4994359;28;20481;-66
2022/03/04 07:49:20;;;;;;;53.55;33.10;;;;;;;;;;4994196;28;20085;-67
2022/03/04 07:51:48;;;;;;;58.17;34.95;;;;;;;;;;4993988;28;20101;-66
2022/03/04 07:54:15;;;;;;;52.90;33.08;;;;;;;;;;4994033;28;20036;-66
2022/03/04 07:56:41;;;;;;;65.18;34.50;;;;;;;;;;4993674;28;20122;-67
2022/03/04 07:59:07;;;;;;;64.78;37.30;;;;;;;;;;4994160;28;20029;-67
2022/03/04 08:01:33;;;;;;;95.68;54.05;;;;;;;;;;4976333;28;20101;-67
2022/03/04 08:03:59;;;;;;;57.17;36.47;;;;;;;;;;4993841;28;20045;-67
2022/03/04 08:06:25;;;;;;;49.25;28.83;;;;;;;;;;4993827;28;20034;-67
2022/03/04 08:08:51;;;;;;;48.38;29.73;;;;;;;;;;4993802;28;20062;-67
2022/03/04 08:11:17;;;;;;;41.63;27.13;;;;;;;;;;4993794;28;20026;-66
2022/03/04 08:13:43;;;;;;;42.33;28.77;;;;;;;;;;4993925;28;20392;-66
2022/03/04 08:16:09;;;;;;;42.38;27.90;;;;;;;;;;4993856;28;20438;-66
2022/03/04 08:18:35;;;;;;;49.50;28.15;;;;;;;;;;4993789;28;20030;-66
2022/03/04 08:21:03;;;;;;;47.28;28.88;;;;;;;;;;4993657;28;20022;-66
2022/03/04 08:23:29;;;;;;;49.75;30.77;;;;;;;;;;4994213;28;20032;-66
2022/03/04 08:25:57;;;;;;;51.55;31.63;;;;;;;;;;4993643;28;20113;-67
2022/03/04 08:28:23;;;;;;;72.88;38.78;;;;;;;;;;4993423;28;20048;-67
2022/03/04 08:30:49;;;;;;;83.45;45.67;;;;;;;;;;4993709;28;20022;-65
2022/03/04 08:33:16;;;;;;;49.67;31.35;;;;;;;;;;4993393;28;20037;-66
2022/03/04 08:35:42;;;;;;;49.28;30.95;;;;;;;;;;4993596;28;20105;-65
2022/03/04 08:38:08;;;;;;;44.45;31.92;;;;;;;;;;4993441;28;20023;-65
2022/03/04 08:40:34;;;;;;;54.72;31.42;;;;;;;;;;4975821;28;20393;-66
2022/03/04 08:43:00;;;;;;;52.80;31.20;;;;;;;;;;4993308;28;20027;-65
2022/03/04 08:45:26;;;;;;;46.40;28.23;;;;;;;;;;4993339;28;20176;-66
2022/03/04 08:47:52;;;;;;;39.47;25.77;;;;;;;;;;4993325;28;20022;-65
2022/03/04 08:50:19;;;;;;;42.55;27.88;;;;;;;;;;4993338;28;20034;-65
2022/03/04 08:52:45;;;;;;;76.47;47.30;;;;;;;;;;4993318;28;20046;-66
2022/03/04 08:55:14;;;;;;;60.45;37.75;;;;;;;;;;4993303;28;20030;-67
2022/03/04 08:57:47;;;;;;;41.50;28.38;;;;;;;;;;4993186;28;20038;-66
2022/03/04 09:00:14;;;;;;;63.55;38.55;;;;;;;;;;4993253;28;20027;-66
2022/03/04 09:02:41;;;;;;;44.78;27.17;;;;;;;;;;4975673;28;20407;-66
2022/03/04 09:05:07;;;;;;;49.53;33.30;;;;;;;;;;4993593;28;20058;-66
2022/03/04 09:07:33;;;;;;;86.18;50.17;;;;;;;;;;4993160;28;20102;-66
2022/03/04 09:09:59;;;;;;;95.45;57.80;;;;;;;;;;4975364;28;20093;-66
2022/03/04 09:12:25;;;;;;;44.60;27.73;;;;;;;;;;4993223;28;20077;-66
2022/03/04 09:14:52;;;;;;;50.25;30.00;;;;;;;;;;4993198;28;20026;-67
2022/03/04 09:17:18;;;;;;;34.83;23.55;;;;;;;;;;4993032;28;20469;-67
2022/03/04 09:19:44;;;;;;;37.30;25.13;;;;;;;;;;4993051;28;20026;-66
2022/03/04 09:22:10;;;;;;;35.28;23.90;;;;;;;;;;4993503;28;20556;-66
2022/03/04 09:24:36;;;;;;;36.53;22.98;;;;;;;;;;4992880;28;20081;-66
2022/03/04 09:27:02;;;;;;;41.92;26.58;;;;;;;;;;4993042;28;20035;-66
2022/03/04 09:29:28;;;;;;;37.90;25.63;;;;;;;;;;4992951;28;20041;-66
2022/03/04 09:31:54;;;;;;;38.45;27.98;;;;;;;;;;4992837;28;20022;-66
2022/03/04 09:34:20;;;;;;;50.15;30.65;;;;;;;;;;4992717;28;20106;-66
2022/03/04 09:36:46;;;;;;;42.30;29.05;;;;;;;;;;4992750;28;20029;-67
2022/03/04 09:39:12;;;;;;;37.97;26.25;;;;;;;;;;4992754;28;20144;-66
2022/03/04 09:41:44;;;;;;;39.50;30.90;;;;;;;;;;4996313;28;20130;-67
2022/03/04 09:44:10;;;;;;;37.72;25.70;;;;;;;;;;4996049;28;20524;-66
2022/03/04 09:46:36;;;;;;;37.20;26.98;;;;;;;;;;4996271;28;20034;-66
2022/03/04 09:49:02;;;;;;;38.72;30.00;;;564.10;742.40;;;;;;4996102;28;20049;-66
2022/03/04 09:51:28;;;;;;;51.53;31.70;;;588.90;742.40;;;;;;4996239;28;20056;-66
2022/03/04 09:53:54;;;;;;;47.78;31.52;;;589.10;742.40;;;;;;4996310;28;20030;-67
2022/03/04 09:56:20;;;;;;;31.55;25.92;;;;;;;;;;4996270;28;20118;-66
2022/03/04 09:58:49;;;;;;;37.15;27.15;;;;;;;;;;4995861;28;20061;-66
2022/03/04 10:01:16;;;;;;;42.25;26.45;;;;;;;;;;4995775;28;20027;-66
2022/03/04 10:03:42;;;;;;;38.78;27.63;;;;;;;;;;4995883;28;20088;-67
2022/03/04 10:06:08;;;;;;;43.60;28.52;;;;;;;;;;4995785;28;20027;-67
2022/03/04 10:08:38;;;;;;;42.38;29.08;;;;;;;;;;4995616;28;20042;-66
2022/03/04 10:11:04;;;;;;;39.05;28.70;;;666.30;588.80;;;;;;4995467;28;20108;-66
2022/03/04 10:13:42;;;;;;;47.40;30.67;;;666.20;614.40;;;;;;4995828;28;20113;-66
2022/03/04 10:16:08;;;;;;;44.03;31.63;;;666.30;614.40;;;;;;4995581;28;20035;-66
2022/03/04 10:18:34;;;;;;;31.92;26.30;;;691.30;614.40;;;;;;4995847;28;20101;-66
2022/03/04 10:21:00;;;;;;;44.08;27.65;;;691.70;614.40;;;;;;4995383;28;20039;-66
2022/03/04 10:23:27;;;;;;;31.50;25.88;;;691.70;614.40;;;;;;4995417;28;20474;-67
2022/03/04 10:25:57;;;;;;;25.58;21.38;;;;;;;;;;4995742;28;20092;-68
2022/03/04 10:28:25;;;;;;;30.73;22.73;;;717.20;588.80;;;;;;4995328;28;20042;-67
2022/03/04 10:30:53;;;;;;;34.22;28.60;;;;;;;;;;4995215;28;20256;-65
2022/03/04 10:33:20;;;;;;;52.08;32.22;;;;;;;;;;4995108;28;20528;-66
2022/03/04 10:35:50;;;;;;;25.95;22.55;;;;;;;;;;4995132;28;20027;-66
2022/03/04 10:38:24;;;;;;;36.00;29.70;;;742.60;588.80;;;;;;4995205;28;20022;-66
2022/03/04 10:40:51;;;;;;;30.38;26.15;;;;;;;;;;4995115;28;20097;-66
2022/03/04 10:43:24;;;;;;;41.25;37.25;;;743.20;563.20;;;;;;4977354;28;20130;-66
2022/03/04 10:45:59;;;;;;;30.13;26.95;;;;;;;;;;4994997;28;20034;-66
2022/03/04 10:48:26;;;;;;;47.63;29.40;;;;;;;;;;4994540;28;20500;-66
2022/03/04 10:50:55;;;;;;;33.20;26.20;;;743.00;512.00;;;;;;4994506;28;20028;-65
2022/03/04 10:53:22;;;;;;;31.02;24.98;;;742.90;537.60;;;;;;4994981;28;20382;-65
2022/03/04 10:55:59;;;;;;;37.30;25.38;;;742.90;512.00;;;;;;4977399;28;20117;-65
2022/03/04 10:58:36;;;;;;;42.83;27.65;;;743.20;512.00;;;;;;4994899;28;20444;-65
2022/03/04 11:01:09;;;;;;;34.75;28.83;;;743.00;537.60;;;;;;4994789;28;20030;-66
2022/03/04 11:03:37;;;;;;;38.28;25.30;;;742.90;537.60;;;;;;4976941;28;20524;-66
2022/03/04 11:06:05;;;;;;;39.25;28.75;;;743.00;537.60;;;;;;4994764;28;20050;-66
2022/03/04 11:08:31;;;;;;;44.15;25.05;;;;;;;;;;4994566;28;20061;-66
2022/03/04 11:10:59;;;;;;;32.50;24.70;;;742.60;512.00;;;;;;4994657;28;20073;-66
2022/03/04 11:13:26;;;;;;;32.80;23.10;;;742.40;563.20;;;;;;4994876;28;20105;-66
2022/03/04 11:15:53;;;;;;;36.65;24.50;;;742.40;537.60;;;;;;4994454;28;20034;-66
2022/03/04 11:18:20;;;;;;;49.10;26.52;;;;;;;;;;4994104;28;20563;-66
2022/03/04 11:20:47;;;;;;;37.83;23.00;;;;;;;;;;4994629;28;20022;-66
2022/03/04 11:23:19;;;;;;;33.03;21.98;;;;;;;;;;4976782;28;20033;-66
2022/03/04 11:25:51;;;;;;;40.17;29.55;;;;;;;;;;4994581;28;20484;-66
2022/03/04 11:28:18;;;;;;;40.80;28.23;;;;;;;;;;4994053;28;20393;-67
2022/03/04 11:30:56;;;;;;;35.53;26.17;;;691.20;537.60;;;;;;4993935;28;20031;-66
2022/03/04 11:33:22;;;;;;;35.95;28.13;;;666.00;563.20;;;;;;4976041;28;20031;-65
2022/03/04 11:36:06;;;;;;;49.65;37.03;;;;;;;;;;4994139;28;20029;-66
2022/03/04 11:38:44;;;;;;;51.33;38.33;;;;;;;;;;4993805;28;20540;-66
2022/03/04 11:41:31;;;;;;;48.90;29.33;;;;;;;;;;4993709;28;20113;-66
2022/03/04 11:44:10;;;;;;;37.30;30.80;;;;;;;;;;4976010;28;20124;-66
2022/03/04 11:46:58;;;;;;;44.15;30.55;;;589.40;640.00;;;;;;4994197;28;20448;-66
2022/03/04 11:49:26;;;;;;;48.30;35.97;;;564.00;742.40;;;;;;4993677;28;20031;-66
2022/03/04 11:52:11;;;;;;;32.75;26.52;;;;;;;;;;4993620;28;20054;-66
2022/03/04 11:54:37;;;;;;;31.92;21.10;;;;;;;;;;4993824;28;20092;-67
2022/03/04 11:57:23;;;;;;;51.83;39.67;;;;;;;;;;4993700;28;20022;-66
2022/03/04 11:59:49;;;;;;;45.25;35.58;;;;;;;;;;4980295;28;20050;-66
2022/03/04 12:02:19;;;;;;;29.15;23.80;;;;;;;;;;4993036;28;20069;-66
2022/03/04 12:04:45;;;;;;;34.30;24.10;;;;;;;;;;4993585;28;20022;-67
2022/03/04 12:07:11;;;;;;;43.42;23.50;;;;;;;;;;4993642;28;20019;-67
2022/03/04 12:09:38;;;;;;;50.78;31.00;;;;;;;;;;4993420;28;20552;-67
2022/03/04 12:12:13;;;;;;;74.30;46.45;;;;;;;;;;4975627;28;20034;-67
2022/03/04 12:14:42;;;;;;;58.67;31.70;;;;;;;;;;4993997;28;20085;-66
2022/03/04 12:17:09;;;;;;;42.25;29.33;;;;;;;;;;4993531;28;20734;-66
2022/03/04 12:19:35;;;;;;;37.70;26.40;;;;;;;;;;4993561;28;20029;-67
2022/03/04 12:22:01;;;;;;;54.42;24.98;;;;;;;;;;4993423;28;20030;-67
2022/03/04 12:24:30;;;;;;;38.25;26.33;;;;;;;;;;4993805;28;20499;-67
2022/03/04 12:26:57;;;;;;;27.00;20.58;;;;;;;;;;4993407;28;20022;-67
2022/03/04 12:29:41;;;;;;;47.67;23.38;;;;;;;;;;4993273;28;20026;-67
2022/03/04 12:32:10;;;;;;;36.33;25.98;;;;;;;;;;4975781;28;20533;-67
2022/03/04 12:34:41;;;;;;;31.83;23.15;;;;;;;;;;4993140;28;20477;-68
2022/03/04 12:37:14;;;;;;;31.45;22.00;;;;;;;;;;4993049;28;20019;-67
2022/03/04 12:39:40;;;;;;;28.55;20.33;;;;;;;;;;4975694;28;20037;-67
2022/03/04 12:42:07;;;;;;;30.67;22.27;;;;;;;;;;4992875;28;20130;-67
2022/03/04 12:44:33;;;;;;;40.05;23.15;;;;;;;;;;4992814;28;20046;-67
2022/03/04 12:46:59;;;;;;;45.10;22.90;;;;;;;;;;4992734;28;20035;-67
2022/03/04 12:49:28;;;;;;;42.38;26.05;;;;;;;;;;4992971;28;20041;-67
2022/03/04 12:51:54;;;;;;;46.42;22.65;;;;;;;;;;4993363;28;20014;-66
2022/03/04 12:54:25;;;;;;;30.73;20.17;;;;;;;;;;4993015;28;20538;-67
2022/03/04 12:56:58;;;;;;;49.10;22.67;;;;;;;;;;4975211;28;20034;-67
2022/03/04 12:59:27;;;;;;;34.30;20.13;;;;;;;;;;4992822;28;20081;-67
2022/03/04 13:01:53;;;;;;;38.60;21.70;;;;;;;;;;4992937;28;20030;-67
2022/03/04 13:04:19;;;;;;;28.38;20.00;;;;;;;;;;4992778;28;20054;-67
2022/03/04 13:06:45;;;;;;;28.65;19.95;;;;;;;;;;4992898;28;20026;-65
2022/03/04 13:09:12;;;;;;;37.53;18.88;;;;;;;;;;4992780;28;20493;-66
2022/03/04 13:11:42;;;;;;;26.77;17.48;;;;;;;;;;4992694;28;20384;-66
2022/03/04 13:14:08;;;;;;;35.15;19.23;;;;;;;;;;4994447;28;20036;-65
2022/03/04 13:16:40;;;;;;;66.70;22.67;;;;;;;;;;4996621;28;20034;-65
2022/03/04 13:19:08;;;;;;;26.70;16.70;;;;;;;;;;4996406;28;20503;-67
2022/03/04 13:21:37;;;;;;;42.10;20.50;;;461.70;716.80;;;;;;4996565;28;20065;-65
2022/03/04 13:24:08;;;;;;;26.10;18.15;;;461.70;716.80;;;;;;4996335;28;20157;-65